Time;durP1;ratioP1;P1;durP2;ratioP2;P2;SDS_P1;SDS_P2;PMS_P1;PMS_P2;Temp;Humidity;BMP_temperature;BMP_pressure;BME280_temperature;BME280_humidity;BME280_pressure;Samples;Min_cycle;Max_cycle;Signal;HPM_P1;HPM_P2
2023/10/27 00:00:38;;;;;;;19.50;9.03;;;;;;;9.10;100.00;98338.97;5031023;28;20199;-78
2023/10/27 00:03:05;;;;;;;20.57;10.53;;;;;;;9.14;100.00;98333.63;5025507;28;20202;-80
2023/10/27 00:05:31;;;;;;;22.70;11.03;;;;;;;9.13;100.00;98324.84;5030475;28;20536;-83
2023/10/27 00:07:58;;;;;;;21.47;10.70;;;;;;;9.15;100.00;98324.81;5027258;28;20214;-80
2023/10/27 00:10:25;;;;;;;21.47;9.83;;;;;;;9.08;100.00;98324.03;5022482;28;20219;-82
2023/10/27 00:12:52;;;;;;;21.40;10.57;;;;;;;8.99;100.00;98322.41;5023312;28;20210;-82
2023/10/27 00:15:18;;;;;;;17.87;9.93;;;;;;;8.94;100.00;98324.25;5028422;28;20234;-79
2023/10/27 00:17:45;;;;;;;20.50;9.10;;;;;;;8.87;100.00;98319.06;5028990;28;20749;-79
2023/10/27 00:20:12;;;;;;;13.53;8.27;;;;;;;8.84;100.00;98321.75;5024117;28;20204;-82
2023/10/27 00:22:39;;;;;;;16.47;8.40;;;;;;;8.75;100.00;98313.03;5030265;28;20196;-80
2023/10/27 00:25:06;;;;;;;18.40;8.43;;;;;;;8.75;100.00;98323.59;5029388;28;20237;-81
2023/10/27 00:27:32;;;;;;;18.33;8.77;;;;;;;8.67;100.00;98316.66;5026943;28;20218;-82
2023/10/27 00:29:58;;;;;;;16.13;8.40;;;;;;;8.68;100.00;98318.41;5029765;28;20215;-85
2023/10/27 00:32:25;;;;;;;14.37;7.93;;;;;;;8.70;100.00;98319.25;5027523;28;20665;-82
2023/10/27 00:34:51;;;;;;;18.30;8.70;;;;;;;8.73;100.00;98321.84;5029570;28;20219;-81
2023/10/27 00:37:18;;;;;;;15.57;8.77;;;;;;;8.66;100.00;98299.97;5023317;28;20294;-81
2023/10/27 00:39:45;;;;;;;19.30;9.40;;;;;;;8.88;100.00;98320.81;5027157;28;20206;-82
2023/10/27 00:42:11;;;;;;;17.20;8.37;;;;;;;8.94;100.00;98323.38;5028737;28;20204;-80
2023/10/27 00:44:38;;;;;;;17.77;8.37;;;;;;;8.93;100.00;98311.94;5029850;28;20232;-82
2023/10/27 00:47:05;;;;;;;19.07;8.50;;;;;;;9.02;100.00;98316.22;5027349;28;20298;-82
2023/10/27 00:49:31;;;;;;;17.00;8.87;;;;;;;9.02;100.00;98303.00;5030733;28;20215;-83
2023/10/27 00:51:58;;;;;;;18.30;8.60;;;;;;;9.00;100.00;98300.38;5025161;28;20764;-83
2023/10/27 00:54:25;;;;;;;18.60;8.67;;;;;;;9.03;100.00;98307.41;5029891;28;20246;-80
2023/10/27 00:56:55;;;;;;;19.03;8.23;;;;;;;9.08;100.00;98305.56;5026759;28;20656;-81
2023/10/27 00:59:22;;;;;;;13.50;7.50;;;;;;;9.11;100.00;98308.16;5028172;28;20224;-82
2023/10/27 01:01:49;;;;;;;16.70;8.50;;;;;;;9.12;100.00;98296.69;5024551;28;20265;-82
2023/10/27 01:04:15;;;;;;;16.10;7.87;;;;;;;9.16;100.00;98302.78;5028152;28;20231;-80
2023/10/27 01:06:42;;;;;;;16.87;8.30;;;;;;;9.24;100.00;98306.22;5025512;28;20197;-79
2023/10/27 01:09:08;;;;;;;18.17;8.13;;;;;;;9.20;100.00;98302.72;5022499;28;20229;-80
2023/10/27 01:11:35;;;;;;;18.97;9.23;;;;;;;9.21;100.00;98298.34;5029253;28;20243;-85
2023/10/27 01:14:01;;;;;;;22.10;8.90;;;;;;;9.20;100.00;98294.81;5026977;28;20247;-82
2023/10/27 01:16:28;;;;;;;21.00;9.83;;;;;;;9.15;100.00;98287.84;5022383;28;20238;-81
2023/10/27 01:18:55;;;;;;;22.30;10.43;;;;;;;9.08;100.00;98281.78;5021219;28;20578;-80
2023/10/27 01:21:22;;;;;;;20.23;8.43;;;;;;;9.08;100.00;98287.06;5030079;28;20206;-83
2023/10/27 01:23:48;;;;;;;17.77;8.67;;;;;;;9.07;100.00;98282.69;5026920;28;20207;-81
2023/10/27 01:26:14;;;;;;;18.70;8.87;;;;;;;9.11;100.00;98279.09;5028598;28;20195;-81
2023/10/27 01:28:41;;;;;;;19.37;9.87;;;;;;;9.21;100.00;98275.44;5028769;28;20285;-80
2023/10/27 01:31:07;;;;;;;22.73;9.63;;;;;;;9.22;100.00;98273.69;5037296;28;20734;-81
2023/10/27 01:33:34;;;;;;;20.13;9.73;;;;;;;9.20;100.00;98278.09;5026402;28;20208;-81
2023/10/27 01:36:00;;;;;;;21.63;9.23;;;;;;;9.10;100.00;98272.09;5027085;28;20250;-80
2023/10/27 01:38:27;;;;;;;18.47;8.80;;;;;;;9.06;100.00;98265.97;5028298;28;20210;-79
2023/10/27 01:40:53;;;;;;;18.27;9.33;;;;;;;9.06;100.00;98268.63;5024940;28;20200;-80
2023/10/27 01:43:20;;;;;;;20.87;9.43;;;;;;;9.05;100.00;98258.94;5026286;28;20310;-78
2023/10/27 01:45:46;;;;;;;20.27;9.37;;;;;;;9.03;100.00;98265.16;5027933;28;20933;-79
2023/10/27 01:48:13;;;;;;;19.60;9.77;;;;;;;9.03;100.00;98257.22;5028077;28;20204;-77
2023/10/27 01:50:39;;;;;;;20.80;9.77;;;;;;;8.96;100.00;98255.56;5026060;28;20230;-78
2023/10/27 01:53:05;;;;;;;19.10;9.63;;;;;;;8.88;100.00;98246.91;5027574;28;20226;-78
2023/10/27 01:55:32;;;;;;;22.93;10.13;;;;;;;8.94;100.00;98257.38;5026190;28;20761;-76
2023/10/27 01:57:58;;;;;;;18.07;9.03;;;;;;;8.85;100.00;98249.59;5024956;28;20690;-70
2023/10/27 02:00:25;;;;;;;17.20;8.37;;;;;;;8.83;100.00;98252.25;5027982;28;20240;-73
2023/10/27 02:02:51;;;;;;;18.70;8.57;;;;;;;8.73;100.00;98243.56;5028547;28;20732;-75
2023/10/27 02:05:18;;;;;;;18.13;8.80;;;;;;;8.75;100.00;98244.41;5027543;28;20281;-81
2023/10/27 02:07:44;;;;;;;21.63;9.03;;;;;;;8.73;100.00;98218.94;5026431;28;20310;-82
2023/10/27 02:10:10;;;;;;;22.37;9.40;;;;;;;8.84;100.00;98237.28;5027953;28;20218;-79
2023/10/27 02:12:40;;;;;;;18.57;9.23;;;;;;;8.79;100.00;98239.97;5025440;28;20209;-75
2023/10/27 02:15:08;;;;;;;25.03;9.60;;;;;;;8.82;100.00;98218.84;5027078;28;20236;-75
2023/10/27 02:17:34;;;;;;;16.27;9.00;;;;;;;8.79;100.00;98218.84;5026977;28;20204;-76
2023/10/27 02:20:01;;;;;;;19.50;9.10;;;;;;;8.81;100.00;98216.22;5030445;28;20208;-79
2023/10/27 02:22:27;;;;;;;16.20;8.43;;;;;;;8.77;100.00;98210.97;5026683;28;20286;-81
2023/10/27 02:24:54;;;;;;;20.07;8.17;;;;;;;8.78;100.00;98215.34;5026232;28;20664;-80
2023/10/27 02:27:20;;;;;;;21.23;8.10;;;;;;;8.78;100.00;98215.34;5027995;28;20260;-82
2023/10/27 02:29:46;;;;;;;17.13;7.63;;;;;;;8.72;100.00;98201.38;5028437;28;20685;-84
2023/10/27 02:32:13;;;;;;;15.10;6.87;;;;;;;8.74;100.00;98203.09;5027524;28;20209;-80
2023/10/27 02:34:39;;;;;;;13.30;6.23;;;;;;;8.82;100.00;98196.84;5027423;28;20238;-78
2023/10/27 02:37:06;;;;;;;14.37;6.83;;;;;;;8.79;100.00;98193.34;5027354;28;20296;-77
2023/10/27 02:39:32;;;;;;;17.33;6.73;;;;;;;8.84;100.00;98177.47;5028780;28;20282;-75
2023/10/27 02:41:58;;;;;;;17.23;6.80;;;;;;;8.87;100.00;98192.38;5022495;28;20740;-86
2023/10/27 02:44:25;;;;;;;15.97;6.60;;;;;;;8.86;100.00;98186.22;5026957;28;20741;-77
2023/10/27 02:46:51;;;;;;;14.47;6.47;;;;;;;8.80;100.00;98181.00;5023971;28;20301;-76
2023/10/27 02:49:18;;;;;;;12.57;6.00;;;;;;;8.81;100.00;98180.16;5029078;28;20211;-79
2023/10/27 02:51:44;;;;;;;14.47;6.53;;;;;;;8.84;100.00;98187.13;5024644;28;20563;-73
2023/10/27 02:54:10;;;;;;;18.03;6.30;;;;;;;8.78;100.00;98191.59;5026786;28;20334;-73
2023/10/27 02:56:37;;;;;;;12.83;6.60;;;;;;;8.86;100.00;98194.13;5029394;28;20201;-83
2023/10/27 02:59:05;;;;;;;16.27;7.13;;;;;;;8.90;100.00;98194.97;5031398;28;20216;-80
2023/10/27 03:01:31;;;;;;;13.67;6.33;;;;;;;8.84;100.00;98184.50;5029816;28;20199;-80
2023/10/27 03:03:58;;;;;;;13.83;6.37;;;;;;;8.84;100.00;98187.13;5031550;28;20238;-75
2023/10/27 03:06:25;;;;;;;15.77;6.10;;;;;;;8.81;100.00;98185.44;5032193;28;20230;-79
2023/10/27 03:08:51;;;;;;;12.13;5.37;;;;;;;8.85;100.00;98196.81;5030014;28;20592;-82
2023/10/27 03:11:17;;;;;;;14.27;6.20;;;;;;;8.82;100.00;98187.16;5028848;28;20218;-81
2023/10/27 03:13:44;;;;;;;16.07;6.20;;;;;;;8.85;100.00;98191.53;5030948;28;20200;-79
2023/10/27 03:16:10;;;;;;;13.00;5.37;;;;;;;8.87;100.00;98197.66;5030992;28;20210;-81
2023/10/27 03:18:37;;;;;;;17.63;7.10;;;;;;;8.97;100.00;98196.59;5025185;28;20251;-82
2023/10/27 03:21:03;;;;;;;16.10;6.23;;;;;;;8.99;100.00;98193.03;5030870;28;20196;-82
2023/10/27 03:23:30;;;;;;;18.80;6.90;;;;;;;9.07;100.00;98195.56;5029278;28;20201;-80
2023/10/27 03:25:58;;;;;;;16.10;7.10;;;;;;;9.16;100.00;98198.03;5031363;28;20745;-78
2023/10/27 03:28:25;;;;;;;16.23;7.40;;;;;;;9.26;100.00;98199.66;5029788;28;20212;-81
2023/10/27 03:30:52;;;;;;;17.43;7.50;;;;;;;9.32;100.00;98198.69;5030745;28;20402;-83
2023/10/27 03:33:18;;;;;;;17.03;7.27;;;;;;;9.27;100.00;98182.03;5029124;28;20207;-81
2023/10/27 03:35:45;;;;;;;16.10;7.13;;;;;;;9.40;100.00;98202.94;5025346;28;20220;-80
2023/10/27 03:38:13;;;;;;;13.73;6.73;;;;;;;9.43;100.00;98202.00;5030951;28;20783;-78
2023/10/27 03:40:41;;;;;;;16.93;6.80;;;;;;;9.41;100.00;98204.66;5031281;28;20211;-75
2023/10/27 03:43:08;;;;;;;15.27;6.43;;;;;;;9.47;100.00;98208.97;5029615;28;20206;-75
2023/10/27 03:45:35;;;;;;;17.87;7.57;;;;;;;9.56;100.00;98202.66;5029346;28;20282;-75
2023/10/27 03:48:02;;;;;;;13.00;6.77;;;;;;;9.49;100.00;98193.09;5031213;28;20203;-77
2023/10/27 03:50:28;;;;;;;14.87;6.80;;;;;;;9.56;100.00;98198.25;5029015;28;20244;-83
2023/10/27 03:52:56;;;;;;;13.60;6.40;;;;;;;9.52;100.00;98193.91;5026279;28;20212;-78
2023/10/27 03:55:22;;;;;;;11.77;5.57;;;;;;;9.46;100.00;98188.75;5029022;28;20215;-81
2023/10/27 03:57:50;;;;;;;18.50;7.30;;;;;;;9.59;100.00;98198.19;5030277;28;20209;-80
2023/10/27 04:00:16;;;;;;;14.80;6.47;;;;;;;9.46;100.00;98186.09;5029508;28;20222;-80
2023/10/27 04:02:45;;;;;;;14.63;6.40;;;;;;;9.65;100.00;98197.22;5026936;28;20208;-81
2023/10/27 04:05:12;;;;;;;12.63;6.73;;;;;;;9.71;100.00;98197.09;5029266;28;20228;-80
2023/10/27 04:07:39;;;;;;;17.53;7.37;;;;;;;9.64;100.00;98183.16;5028378;28;20206;-82
2023/10/27 04:10:06;;;;;;;14.37;7.37;;;;;;;9.68;100.00;98189.25;5027352;28;20683;-78
2023/10/27 04:12:32;;;;;;;16.73;7.63;;;;;;;9.77;100.00;98188.19;5030364;28;20203;-77
2023/10/27 04:14:59;;;;;;;13.27;7.47;;;;;;;9.69;100.00;98188.34;5045815;22;20235;-79
2023/10/27 04:17:25;;;;;;;17.73;7.03;;;;;;;9.67;100.00;98187.50;5026940;28;20207;-80
2023/10/27 04:19:52;;;;;;;13.87;6.60;;;;;;;9.68;100.00;98187.47;5045364;28;20238;-78
2023/10/27 04:22:18;;;;;;;14.53;7.03;;;;;;;9.71;100.00;98189.19;5033641;28;20641;-78
2023/10/27 04:24:45;;;;;;;18.10;7.57;;;;;;;9.64;100.00;98196.34;5035051;28;20244;-78
2023/10/27 04:27:11;;;;;;;16.03;7.27;;;;;;;9.55;100.00;98187.69;5034172;28;20203;-78
2023/10/27 04:29:38;;;;;;;14.57;7.23;;;;;;;9.66;100.00;98191.03;5031581;28;20219;-78
2023/10/27 04:32:04;;;;;;;19.30;7.60;;;;;;;9.66;100.00;98185.75;5031636;28;20616;-78
2023/10/27 04:34:31;;;;;;;16.87;7.10;;;;;;;9.63;100.00;98183.16;5028026;28;20656;-78
2023/10/27 04:36:57;;;;;;;21.40;8.50;;;;;;;9.60;100.00;98180.56;5027497;28;20204;-77
2023/10/27 04:39:24;;;;;;;20.60;8.07;;;;;;;9.63;100.00;98178.75;5025868;28;20792;-77
2023/10/27 04:41:50;;;;;;;17.60;7.13;;;;;;;9.56;100.00;98181.50;5023127;28;20204;-77
2023/10/27 04:44:22;;;;;;;20.63;7.37;;;;;;;9.58;100.00;98172.66;5028375;28;20202;-77
2023/10/27 04:46:50;;;;;;;14.77;7.27;;;;;;;9.58;100.00;98179.72;5024524;28;20654;-78
2023/10/27 04:49:17;;;;;;;17.50;7.70;;;;;;;9.55;100.00;98179.78;5030629;28;20295;-77
2023/10/27 04:51:43;;;;;;;21.13;7.90;;;;;;;9.50;100.00;98166.66;5026587;28;20225;-76
2023/10/27 04:54:10;;;;;;;18.13;7.10;;;;;;;9.55;100.00;98171.84;5024611;28;20533;-77
2023/10/27 04:56:36;;;;;;;25.63;8.63;;;;;;;9.56;100.00;98169.16;5021805;28;20210;-76
2023/10/27 04:59:03;;;;;;;19.33;7.80;;;;;;;9.52;100.00;98171.91;5024154;28;20226;-77
2023/10/27 05:01:30;;;;;;;15.33;7.57;;;;;;;9.49;100.00;98170.19;5025770;28;20197;-77
2023/10/27 05:03:56;;;;;;;20.43;7.83;;;;;;;9.52;100.00;98169.25;5025831;28;20293;-77
2023/10/27 05:06:23;;;;;;;15.23;7.60;;;;;;;9.55;100.00;98167.44;5024947;28;20192;-77
2023/10/27 05:08:50;;;;;;;18.13;7.60;;;;;;;9.61;100.00;98159.41;5025593;28;20706;-77
2023/10/27 05:11:17;;;;;;;18.10;8.20;;;;;;;9.59;100.00;98147.97;5024530;28;20310;-77
2023/10/27 05:13:44;;;;;;;19.90;7.37;;;;;;;9.57;100.00;98149.78;5024222;28;20293;-77
2023/10/27 05:16:10;;;;;;;17.70;7.30;;;;;;;9.56;100.00;98150.69;5025587;28;20306;-77
2023/10/27 05:18:37;;;;;;;16.17;7.60;;;;;;;9.58;100.00;98145.34;5025753;28;20315;-77
2023/10/27 05:21:03;;;;;;;15.40;6.87;;;;;;;9.57;100.00;98151.53;5021684;28;20194;-77
2023/10/27 05:23:30;;;;;;;13.20;6.70;;;;;;;9.58;100.00;98155.94;5028552;28;20206;-78
2023/10/27 05:25:56;;;;;;;13.17;6.10;;;;;;;9.59;100.00;98153.25;5026927;28;20194;-78
2023/10/27 05:28:23;;;;;;;17.80;6.70;;;;;;;9.65;100.00;98152.31;5024384;28;20781;-78
2023/10/27 05:30:51;;;;;;;15.47;6.10;;;;;;;9.66;100.00;98152.28;5025241;28;20227;-86
2023/10/27 05:33:20;;;;;;;11.93;5.73;;;;;;;9.67;100.00;98147.84;5033595;28;20207;-85
2023/10/27 05:35:48;;;;;;;11.60;6.03;;;;;;;9.69;100.00;98153.97;5024853;28;20290;-85
2023/10/27 05:38:16;;;;;;;10.67;4.73;;;;;;;9.59;100.00;98147.09;5020651;28;20228;-84
2023/10/27 05:40:42;;;;;;;8.00;4.53;;;;;;;9.71;100.00;98171.56;5030710;28;20193;-83
2023/10/27 05:43:09;;;;;;;17.30;5.30;;;;;;;9.74;100.00;98167.97;5025396;28;20207;-81
2023/10/27 05:45:36;;;;;;;17.03;6.70;;;;;;;9.77;100.00;98174.97;5031531;28;20200;-84
2023/10/27 05:48:03;;;;;;;19.77;6.23;;;;;;;9.78;100.00;98177.59;5028564;28;20220;-79
2023/10/27 05:50:29;;;;;;;21.97;7.53;;;;;;;9.77;100.00;98167.91;5028450;28;20226;-81
2023/10/27 05:52:55;;;;;;;21.23;6.83;;;;;;;9.74;100.00;98166.22;5035368;28;20676;-82
2023/10/27 05:55:24;;;;;;;21.60;6.70;;;;;;;9.76;100.00;98166.16;5029494;28;20196;-82
2023/10/27 05:57:51;;;;;;;18.77;6.50;;;;;;;9.78;100.00;98160.84;5026359;28;20611;-80
2023/10/27 06:00:18;;;;;;;20.17;7.10;;;;;;;9.75;100.00;98169.72;5030323;28;20215;-82
2023/10/27 06:02:44;;;;;;;16.50;5.27;;;;;;;9.80;100.00;98161.69;5022432;28;20200;-80
2023/10/27 06:05:11;;;;;;;14.17;5.10;;;;;;;9.79;100.00;98166.13;5021585;28;20432;-80
2023/10/27 06:07:37;;;;;;;14.27;5.67;;;;;;;9.78;100.00;98159.09;5025513;28;20502;-80
2023/10/27 06:10:04;;;;;;;12.60;5.80;;;;;;;9.80;100.00;98164.34;5024486;28;20219;-82
2023/10/27 06:12:31;;;;;;;10.10;5.23;;;;;;;9.81;100.00;98158.16;5022621;28;20215;-82
2023/10/27 06:14:57;;;;;;;16.27;5.33;;;;;;;9.84;100.00;98160.72;5023520;28;20203;-80
2023/10/27 06:17:25;;;;;;;10.93;4.97;;;;;;;9.80;100.00;98162.56;5018343;28;20791;-80
2023/10/27 06:19:54;;;;;;;9.30;4.60;;;;;;;9.81;100.00;98161.66;5026592;28;20243;-80
2023/10/27 06:22:35;;;;;;;11.63;5.67;;;;;;;9.85;100.00;98166.00;5023812;28;20200;-79
2023/10/27 06:25:03;;;;;;;15.07;6.13;;;;;;;9.87;100.00;98165.97;5023308;28;20291;-82
2023/10/27 06:27:30;;;;;;;17.07;6.70;;;;;;;9.89;100.00;98165.03;5025675;28;20196;-81
2023/10/27 06:29:56;;;;;;;24.97;7.37;;;;;;;9.93;100.00;98156.13;5022363;28;20220;-80
2023/10/27 06:32:23;;;;;;;21.23;7.03;;;;;;;9.98;100.00;98161.31;5024907;28;20227;-80
2023/10/27 06:34:49;;;;;;;17.50;6.20;;;;;;;10.02;100.00;98163.91;5028975;28;20307;-80
2023/10/27 06:37:16;;;;;;;17.00;5.80;;;;;;;10.05;100.00;98166.47;5026812;28;20284;-80
2023/10/27 06:39:42;;;;;;;13.17;4.83;;;;;;;10.12;100.00;98167.22;5028953;28;20226;-85
2023/10/27 06:42:09;;;;;;;9.60;4.43;;;;;;;10.13;100.00;98170.75;5027952;28;20194;-82
2023/10/27 06:44:35;;;;;;;13.93;4.07;;;;;;;10.17;100.00;98175.06;5030085;28;20237;-82
2023/10/27 06:47:02;;;;;;;8.97;3.93;;;;;;;10.21;100.00;98172.34;5034090;28;20230;-83
2023/10/27 06:49:29;;;;;;;8.27;3.93;;;;;;;10.25;100.00;98171.38;5032812;28;20225;-84
2023/10/27 06:51:55;;;;;;;11.03;4.30;;;;;;;10.27;100.00;98166.06;5034215;28;21109;-83
2023/10/27 06:54:23;;;;;;;9.03;3.73;;;;;;;10.30;100.00;98176.56;5031392;28;20197;-82
2023/10/27 06:56:50;;;;;;;7.80;3.73;;;;;;;10.26;100.00;98175.75;5025437;28;20203;-83
2023/10/27 06:59:17;;;;;;;9.43;3.77;;;;;;;10.31;100.00;98167.72;5026584;28;20673;-83
2023/10/27 07:01:44;;;;;;;5.07;3.03;;;;;;;10.31;100.00;98173.03;5033453;28;20215;-83
2023/10/27 07:04:13;;;;;;;7.97;3.20;;;;;;;10.35;100.00;98164.09;5035579;28;20199;-84
2023/10/27 07:06:41;;;;;;;8.97;3.60;;;;;;;10.32;100.00;98161.53;5039321;28;20199;-83
2023/10/27 07:09:07;;;;;;;7.40;3.90;;;;;;;10.33;100.00;98173.84;5033533;28;20223;-83
2023/10/27 07:11:34;;;;;;;6.87;3.07;;;;;;;10.34;100.00;98171.19;5032204;28;22727;-79
2023/10/27 07:14:00;;;;;;;6.07;2.90;;;;;;;10.36;100.00;98169.38;5028488;28;20305;-81
2023/10/27 07:16:28;;;;;;;6.27;2.50;;;;;;;10.39;100.00;98173.72;5023795;28;20296;-79
2023/10/27 07:18:56;;;;;;;4.63;2.40;;;;;;;10.42;100.00;98173.69;5024705;28;20215;-76
2023/10/27 07:21:22;;;;;;;4.40;2.30;;;;;;;10.47;100.00;98170.94;5021373;28;20206;-76
2023/10/27 07:23:48;;;;;;;5.63;2.40;;;;;;;10.49;100.00;98171.78;5026433;28;20211;-79
2023/10/27 07:26:16;;;;;;;4.80;2.20;;;;;;;10.52;100.00;98174.34;5026367;28;20679;-76
2023/10/27 07:28:43;;;;;;;3.43;2.10;;;;;;;10.54;100.00;98173.41;5026415;28;20223;-76
2023/10/27 07:31:09;;;;;;;3.93;2.03;;;;;;;10.58;100.00;98180.38;5028424;28;20656;-78
2023/10/27 07:33:39;;;;;;;3.10;2.10;;;;;;;10.58;100.00;98183.00;5029460;28;20691;-79
2023/10/27 07:36:06;;;;;;;3.57;2.20;;;;;;;10.59;100.00;98182.09;5029658;28;20194;-78
2023/10/27 07:38:34;;;;;;;3.53;2.20;;;;;;;10.56;100.00;98184.81;5026066;28;20245;-79
2023/10/27 07:41:03;;;;;;;4.93;2.27;;;;;;;10.58;100.00;98187.44;5029198;28;20238;-76
2023/10/27 07:43:31;;;;;;;4.00;2.00;;;;;;;10.58;100.00;98188.31;5024297;28;20206;-85
2023/10/27 07:46:00;;;;;;;3.30;2.10;;;;;;;10.61;100.00;98196.19;5044760;22;20230;-71
2023/10/27 07:48:26;;;;;;;7.43;2.60;;;;;;;10.70;100.00;98194.22;5041645;28;20211;-71
2023/10/27 07:50:56;;;;;;;7.83;2.90;;;;;;;10.76;100.00;98202.91;5027635;28;20226;-70
2023/10/27 07:53:24;;;;;;;3.90;2.33;;;;;;;10.78;100.00;98197.56;5026121;28;20242;-71
2023/10/27 07:55:51;;;;;;;5.30;2.40;;;;;;;10.73;100.00;98202.09;5026068;28;20583;-70
2023/10/27 07:58:17;;;;;;;3.83;2.33;;;;;;;10.74;100.00;98210.00;5025764;28;20900;-70
2023/10/27 08:00:43;;;;;;;5.50;2.80;;;;;;;10.75;100.00;98210.88;5028604;28;20231;-69
2023/10/27 08:03:10;;;;;;;4.77;2.43;;;;;;;10.72;100.00;98208.31;5036778;28;20205;-68
2023/10/27 08:05:36;;;;;;;5.13;2.50;;;;;;;10.68;100.00;98216.31;5027400;28;20771;-67
2023/10/27 08:08:06;;;;;;;5.20;3.10;;;;;;;10.67;100.00;98222.50;5025452;28;20211;-68
2023/10/27 08:10:32;;;;;;;5.37;2.50;;;;;;;10.67;100.00;98221.63;5029468;28;20582;-67
2023/10/27 08:12:59;;;;;;;7.27;2.60;;;;;;;10.63;100.00;98233.19;5028389;28;20220;-69
2023/10/27 08:15:25;;;;;;;4.27;2.33;;;;;;;10.62;100.00;98236.75;5029753;28;20272;-69
2023/10/27 08:17:51;;;;;;;3.70;2.00;;;;;;;10.59;100.00;98232.41;5028845;28;20603;-69
2023/10/27 08:20:18;;;;;;;6.07;2.20;;;;;;;10.53;100.00;98240.47;5032665;28;20234;-70
2023/10/27 08:22:45;;;;;;;5.33;3.07;;;;;;;10.46;100.00;98240.63;5026910;28;20283;-70
2023/10/27 08:25:12;;;;;;;5.37;2.70;;;;;;;10.41;100.00;98251.31;5031148;28;20723;-70
2023/10/27 08:27:38;;;;;;;4.40;2.37;;;;;;;10.40;100.00;98254.84;5021544;28;20199;-69
2023/10/27 08:30:06;;;;;;;5.13;3.00;;;;;;;10.44;100.00;98264.50;5029871;28;20200;-68
2023/10/27 08:32:32;;;;;;;6.37;2.50;;;;;;;10.44;100.00;98268.91;5027941;28;20214;-69
2023/10/27 08:34:58;;;;;;;5.00;2.60;;;;;;;10.39;100.00;98265.47;5028834;28;20276;-69
2023/10/27 08:37:26;;;;;;;5.07;2.83;;;;;;;10.39;100.00;98258.38;5041506;28;20212;-69
2023/10/27 08:39:52;;;;;;;5.57;2.63;;;;;;;10.43;100.00;98273.31;5023720;28;20644;-71
2023/10/27 08:42:19;;;;;;;5.07;2.30;;;;;;;10.48;100.00;98270.59;5029119;28;20192;-69
2023/10/27 08:44:46;;;;;;;3.87;2.30;;;;;;;10.52;100.00;98280.19;5029428;28;20306;-69
2023/10/27 08:47:12;;;;;;;4.67;2.67;;;;;;;10.53;100.00;98281.94;5028453;28;20713;-69
2023/10/27 08:49:39;;;;;;;5.57;2.47;;;;;;;10.48;100.00;98271.47;5023790;28;20232;-69
2023/10/27 08:52:08;;;;;;;3.80;2.43;;;;;;;10.50;100.00;98274.06;5025117;28;20216;-69
2023/10/27 08:54:38;;;;;;;4.57;2.40;;;;;;;10.55;100.00;98278.38;5029742;28;20269;-69
2023/10/27 08:57:06;;;;;;;3.60;2.23;;;;;;;10.62;100.00;98290.56;5026000;28;20198;-70
2023/10/27 08:59:32;;;;;;;2.17;1.70;;;;;;;10.66;100.00;98294.00;5025321;28;20293;-71
2023/10/27 09:01:59;;;;;;;2.83;1.40;;;;;;;10.67;100.00;98296.63;5028595;28;20202;-72
2023/10/27 09:04:25;;;;;;;3.03;1.87;;;;;;;10.75;100.00;98301.75;5040043;28;20393;-72
2023/10/27 09:06:52;;;;;;;4.97;2.10;;;;;;;10.83;100.00;98305.16;5030532;28;20586;-72
2023/10/27 09:09:19;;;;;;;5.37;1.90;;;;;;;10.88;100.00;98313.00;5030206;28;20198;-72
2023/10/27 09:11:48;;;;;;;4.17;1.87;;;;;;;10.90;100.00;98320.00;5042231;28;20850;-72
2023/10/27 09:14:23;;;;;;;2.73;1.60;;;;;;;10.97;100.00;98318.09;5023261;28;20196;-72
2023/10/27 09:16:51;;;;;;;2.80;1.60;;;;;;;11.12;100.00;98332.75;5030344;28;20311;-72
2023/10/27 09:19:25;;;;;;;5.07;1.83;;;;;;;11.14;100.00;98333.59;5037146;28;20196;-72
2023/10/27 09:21:53;;;;;;;3.83;1.80;;;;;;;11.13;100.00;98334.50;5030035;28;20203;-72
2023/10/27 09:24:29;;;;;;;3.00;1.80;;;;;;;11.13;100.00;98343.31;5042850;28;20286;-72
2023/10/27 09:26:59;;;;;;;3.20;1.93;;;;;;;11.15;100.00;98348.59;5029631;28;20202;-72
2023/10/27 09:29:27;;;;;;;2.53;1.53;;;;;;;11.19;100.00;98353.78;5026740;28;20237;-72
2023/10/27 09:31:53;;;;;;;2.30;1.60;;;;;;;11.20;100.00;98355.53;5027220;28;20248;-72
2023/10/27 09:34:23;;;;;;;4.07;1.80;;;;;;;11.29;100.00;98355.34;5027646;28;20202;-72
2023/10/27 09:36:52;;;;;;;2.90;1.47;;;;;;;11.33;100.00;98355.28;5035021;28;20207;-72
2023/10/27 09:39:20;;;;;;;2.00;1.60;;;;;;;11.50;100.00;98348.66;5025730;28;20551;-72
2023/10/27 09:41:55;;;;;;;2.97;1.50;;;;;;;11.79;100.00;98355.97;5029751;28;20202;-72
2023/10/27 09:44:38;;;;;;;2.77;1.30;;;;;;;11.96;100.00;98352.03;5030116;28;20203;-72
2023/10/27 09:47:12;;;;;;;2.27;1.43;;;;;;;12.09;100.00;98353.50;5030069;28;20199;-72
2023/10/27 09:49:40;;;;;;;1.40;1.07;;;;;;;12.30;100.00;98354.69;5025710;28;20226;-75
2023/10/27 09:52:11;;;;;;;1.27;1.00;;;;;;;12.58;100.00;98349.53;5027298;28;20341;-76
2023/10/27 09:54:39;;;;;;;2.17;1.20;;;;;;;12.93;100.00;98357.38;5029909;28;20216;-79
2023/10/27 09:57:06;;;;;;;1.70;1.10;;;;;;;13.10;100.00;98356.88;5023298;28;20231;-80
2023/10/27 09:59:33;;;;;;;1.60;1.00;;;;;;;13.29;100.00;98352.81;5030803;28;20192;-83
2023/10/27 10:02:05;;;;;;;1.03;1.00;;;;;;;13.62;100.00;98352.69;5029017;28;20201;-82
2023/10/27 10:04:50;;;;;;;2.33;1.20;;;;;;;13.82;100.00;98350.25;5028534;28;20200;-82
2023/10/27 10:07:55;;;;;;;1.33;0.90;;;;;;;13.95;100.00;98356.91;5027373;28;20196;-82
2023/10/27 10:10:33;;;;;;;2.43;1.10;;;;;;;14.07;100.00;98353.88;5026752;28;20691;-81
2023/10/27 10:13:07;;;;;;;1.10;0.80;;;;;;;14.17;100.00;98361.53;5022926;28;20220;-80
2023/10/27 10:15:37;;;;;;;1.60;1.00;;;;;;;14.35;100.00;98355.56;5030220;28;20310;-75
2023/10/27 10:18:05;;;;;;;1.33;0.80;;;;;;;14.29;100.00;98358.44;5028361;28;20199;-76
2023/10/27 10:20:41;;;;;;;0.97;0.77;;;;;;;14.20;100.00;98364.97;5027326;28;20206;-74
2023/10/27 10:23:08;;;;;;;0.63;0.63;;;;;;;13.93;100.00;98365.88;5026163;28;20196;-77
2023/10/27 10:25:35;;;;;;;0.87;0.70;;;;;;;13.83;100.00;98364.44;5028284;28;20306;-77
2023/10/27 10:28:07;;;;;;;0.90;0.70;;;;;;;13.58;100.00;98364.31;5029066;28;20294;-78
2023/10/27 10:30:38;;;;;;;1.27;0.80;;;;;;;13.53;100.00;98364.47;5043923;28;20199;-79
2023/10/27 10:33:22;;;;;;;1.10;0.90;;;;;;;13.68;100.00;98381.75;5025983;28;20277;-76
2023/10/27 10:35:49;;;;;;;1.07;0.80;;;;;;;13.95;100.00;98379.97;5028385;28;20219;-78
2023/10/27 10:38:22;;;;;;;1.00;0.80;;;;;;;13.98;100.00;98372.78;5031749;28;20227;-78
2023/10/27 10:40:57;;;;;;;1.03;0.80;;;;;;;14.03;100.00;98362.88;5029332;28;20215;-81
2023/10/27 10:43:29;;;;;;;1.70;1.10;;;;;;;14.35;100.00;98374.22;5032062;28;20249;-82
2023/10/27 10:46:06;;;;;;;2.07;0.87;;;;;;;14.52;100.00;98373.69;5044464;28;20288;-80
2023/10/27 10:48:35;;;;;;;0.97;0.80;;;;;;;14.40;100.00;98367.78;5028240;28;20574;-82
2023/10/27 10:51:04;;;;;;;1.13;0.73;;;;;;;14.46;100.00;98373.91;5030266;28;20286;-82
2023/10/27 10:53:30;;;;;;;1.40;0.90;;;;;;;14.41;100.00;98374.03;5015661;28;20211;-82
2023/10/27 10:55:59;;;;;;;1.00;0.90;;;;;;;14.43;100.00;98363.34;5028624;28;20723;-79
2023/10/27 10:58:28;;;;;;;1.67;0.90;;;;;;;14.45;100.00;98369.50;5027711;28;20249;-79
2023/10/27 11:00:56;;;;;;;1.30;0.60;;;;;;;14.60;100.00;98375.16;5026658;28;20286;-79
2023/10/27 11:03:26;;;;;;;1.67;0.70;;;;;;;14.63;100.00;98372.38;5027901;28;21650;-77
2023/10/27 11:05:58;;;;;;;1.60;0.70;;;;;;;14.65;100.00;98370.53;5027736;28;20255;-77
2023/10/27 11:08:27;;;;;;;1.90;0.50;;;;;;;14.73;100.00;98372.91;5027461;28;20200;-77
2023/10/27 11:11:07;;;;;;;0.80;0.73;;;;;;;14.45;100.00;98373.03;5024734;28;20256;-76
2023/10/27 11:13:40;;;;;;;1.43;0.70;;;;;;;14.37;100.00;98369.69;5017790;28;20230;-76
2023/10/27 11:16:18;;;;;;;1.07;0.60;;;;;;;14.64;100.00;98368.78;5021003;28;20219;-75
2023/10/27 11:18:46;;;;;;;1.73;0.70;;;;;;;14.94;100.00;98364.16;5031318;28;20195;-75
2023/10/27 11:21:16;;;;;;;0.57;0.53;;;;;;;14.87;100.00;98362.63;5024804;28;20235;-74
2023/10/27 11:23:44;;;;;;;0.97;0.63;;;;;;;14.76;100.00;98366.59;5029592;28;20261;-73
2023/10/27 11:26:11;;;;;;;0.60;0.60;;;;;;;14.78;100.00;98351.41;5027970;28;20224;-73